createdAt,value
2023-04-14T00:00:06.728Z,994.43
2023-04-14T00:01:06.709Z,994.43
2023-04-14T00:02:06.772Z,994.42
2023-04-14T00:03:06.940Z,994.42
2023-04-14T00:04:06.775Z,994.41
2023-04-14T00:05:06.730Z,994.38
2023-04-14T00:06:06.658Z,994.40
2023-04-14T00:07:06.645Z,994.38
2023-04-14T00:08:06.644Z,994.39
2023-04-14T00:09:06.629Z,994.39
2023-04-14T00:10:06.605Z,994.40
2023-04-14T00:11:06.560Z,994.36
2023-04-14T00:12:06.567Z,994.39
2023-04-14T00:13:06.578Z,994.38
2023-04-14T00:14:06.551Z,994.38
2023-04-14T00:15:06.535Z,994.39
2023-04-14T00:16:06.517Z,994.41
2023-04-14T00:17:06.500Z,994.42
2023-04-14T00:18:06.583Z,994.47
2023-04-14T00:19:06.587Z,994.48
2023-04-14T00:20:06.468Z,994.50
2023-04-14T00:21:06.498Z,994.51
2023-04-14T00:22:06.439Z,994.52
2023-04-14T00:23:06.450Z,994.53
2023-04-14T00:24:06.437Z,994.52
2023-04-14T00:25:06.424Z,994.52
2023-04-14T00:26:06.442Z,994.49
2023-04-14T00:27:06.368Z,994.49
2023-04-14T00:28:06.586Z,994.53
2023-04-14T00:29:06.414Z,994.47
2023-04-14T00:30:06.383Z,994.49
2023-04-14T00:31:06.325Z,994.53
2023-04-14T00:32:06.333Z,994.55
2023-04-14T00:33:06.303Z,994.57
2023-04-14T00:34:06.290Z,994.57
2023-04-14T00:35:06.268Z,994.57
2023-04-14T00:36:06.264Z,994.62
2023-04-14T00:37:06.236Z,994.65
2023-04-14T00:38:06.241Z,994.65
2023-04-14T00:39:06.224Z,994.62
2023-04-14T00:40:06.207Z,994.61
2023-04-14T00:41:06.222Z,994.62
2023-04-14T00:42:06.170Z,994.60
2023-04-14T00:43:06.176Z,994.62
2023-04-14T00:44:06.145Z,994.60
2023-04-14T00:45:06.140Z,994.61
2023-04-14T00:46:06.200Z,994.62
2023-04-14T00:47:06.112Z,994.58
2023-04-14T00:48:06.122Z,994.61
2023-04-14T00:49:06.111Z,994.58
2023-04-14T00:50:06.093Z,994.60
2023-04-14T00:51:06.105Z,994.62
2023-04-14T00:52:06.066Z,994.60
2023-04-14T00:53:06.115Z,994.61
2023-04-14T00:54:06.042Z,994.58
2023-04-14T00:55:06.052Z,994.60
2023-04-14T00:56:06.006Z,994.64
2023-04-14T00:57:06.004Z,994.66
2023-04-14T00:58:06.064Z,994.66
2023-04-14T00:59:05.979Z,994.69
2023-04-14T01:00:06.023Z,994.71
2023-04-14T01:01:05.920Z,994.77
2023-04-14T01:02:05.965Z,994.80
2023-04-14T01:03:06.001Z,994.81
2023-04-14T01:04:05.984Z,994.83
2023-04-14T01:05:06.021Z,994.82
2023-04-14T01:06:05.862Z,994.83
2023-04-14T01:07:05.835Z,994.82
2023-04-14T01:08:05.849Z,994.80
2023-04-14T01:09:05.828Z,994.80
2023-04-14T01:10:05.881Z,994.74
2023-04-14T01:11:05.794Z,994.74
2023-04-14T01:12:05.779Z,994.74
2023-04-14T01:13:05.774Z,994.75
2023-04-14T01:14:05.766Z,994.73
2023-04-14T01:15:05.829Z,994.75
2023-04-14T01:16:05.849Z,994.73
2023-04-14T01:17:05.770Z,994.67
2023-04-14T01:18:05.819Z,994.64
2023-04-14T01:19:05.776Z,994.64
2023-04-14T01:20:05.740Z,994.60
2023-04-14T01:21:05.680Z,994.62
2023-04-14T01:22:05.724Z,994.62
2023-04-14T01:23:05.701Z,994.69
2023-04-14T01:24:05.715Z,994.67
2023-04-14T01:25:05.687Z,994.72
2023-04-14T01:26:05.682Z,994.75
2023-04-14T01:27:05.672Z,994.72
2023-04-14T01:28:05.656Z,994.72
2023-04-14T01:29:05.653Z,994.76
2023-04-14T01:30:05.655Z,994.75
2023-04-14T01:31:05.699Z,994.72
2023-04-14T01:32:05.556Z,994.74
2023-04-14T01:33:05.544Z,994.72
2023-04-14T01:34:05.510Z,994.68
2023-04-14T01:35:05.689Z,994.66
2023-04-14T01:36:05.457Z,994.67
2023-04-14T01:37:05.452Z,994.68
2023-04-14T01:38:05.433Z,994.63
2023-04-14T01:39:05.441Z,994.59
2023-04-14T01:40:05.423Z,994.62
2023-04-14T01:41:05.389Z,994.60
2023-04-14T01:42:05.391Z,994.60
2023-04-14T01:43:05.365Z,994.60
2023-04-14T01:44:05.368Z,994.59
2023-04-14T01:45:05.355Z,994.57
2023-04-14T01:46:05.441Z,994.58
2023-04-14T01:47:05.351Z,994.52
2023-04-14T01:48:05.361Z,994.56
2023-04-14T01:49:05.310Z,994.51
2023-04-14T01:50:05.286Z,994.54
2023-04-14T01:51:05.267Z,994.51
2023-04-14T01:52:05.248Z,994.56
2023-04-14T01:53:05.278Z,994.56
2023-04-14T01:54:05.242Z,994.61
2023-04-14T01:55:05.209Z,994.62
2023-04-14T01:56:05.223Z,994.65
2023-04-14T01:57:05.175Z,994.68
2023-04-14T01:58:05.191Z,994.69
2023-04-14T01:59:05.152Z,994.65
2023-04-14T02:00:05.147Z,994.65
2023-04-14T02:01:05.235Z,994.68
2023-04-14T02:02:05.184Z,994.69
2023-04-14T02:03:05.234Z,994.69
2023-04-14T02:04:05.261Z,994.77
2023-04-14T02:05:05.174Z,994.76
2023-04-14T02:06:05.160Z,994.76
2023-04-14T02:07:05.111Z,994.76
2023-04-14T02:08:05.128Z,994.76
2023-04-14T02:09:05.125Z,994.71
2023-04-14T02:10:05.200Z,994.73
2023-04-14T02:11:05.172Z,994.73
2023-04-14T02:12:05.101Z,994.70
2023-04-14T02:13:05.100Z,994.72
2023-04-14T02:14:05.008Z,994.73
2023-04-14T02:15:05.100Z,994.77
2023-04-14T02:16:04.946Z,994.80
2023-04-14T02:17:04.984Z,994.84
2023-04-14T02:18:04.928Z,994.88
2023-04-14T02:19:04.935Z,994.87
2023-04-14T02:20:04.861Z,994.86
2023-04-14T02:21:04.857Z,994.81
2023-04-14T02:22:04.851Z,994.85
2023-04-14T02:23:04.832Z,994.87
2023-04-14T02:24:04.849Z,994.84
2023-04-14T02:25:04.814Z,994.84
2023-04-14T02:26:04.815Z,994.88
2023-04-14T02:27:04.782Z,994.87
2023-04-14T02:28:04.766Z,994.91
2023-04-14T02:29:04.789Z,994.92
2023-04-14T02:30:04.731Z,994.91
2023-04-14T02:31:04.738Z,994.98
2023-04-14T02:32:04.722Z,994.99
2023-04-14T02:33:04.815Z,995.02
2023-04-14T02:34:04.686Z,995.04
2023-04-14T02:35:04.811Z,995.05
2023-04-14T02:36:04.730Z,995.07
2023-04-14T02:37:04.641Z,995.12
2023-04-14T02:38:04.629Z,995.09
2023-04-14T02:39:04.639Z,995.10
2023-04-14T02:40:04.836Z,995.12
2023-04-14T02:41:04.605Z,995.12
2023-04-14T02:42:04.620Z,995.13
2023-04-14T02:43:04.602Z,995.15
2023-04-14T02:44:04.667Z,995.15
2023-04-14T02:45:04.534Z,995.17
2023-04-14T02:46:04.680Z,995.16
2023-04-14T02:47:04.520Z,995.22
2023-04-14T02:48:04.536Z,995.17
2023-04-14T02:49:04.663Z,995.19
2023-04-14T02:50:04.574Z,995.23
2023-04-14T02:51:04.471Z,995.22
2023-04-14T02:52:04.440Z,995.23
2023-04-14T02:53:04.436Z,995.28
2023-04-14T02:54:04.447Z,995.26
2023-04-14T02:55:04.403Z,995.24
2023-04-14T02:56:04.399Z,995.26
2023-04-14T02:57:04.398Z,995.30
2023-04-14T02:58:04.365Z,995.24
2023-04-14T02:59:04.363Z,995.26
2023-04-14T03:00:04.360Z,995.30
2023-04-14T03:01:04.406Z,995.30
2023-04-14T03:02:04.518Z,995.30
2023-04-14T03:03:04.454Z,995.29
2023-04-14T03:04:04.316Z,995.31
2023-04-14T03:05:04.275Z,995.28
2023-04-14T03:06:04.289Z,995.31
2023-04-14T03:07:04.275Z,995.33
2023-04-14T03:08:04.227Z,995.32
2023-04-14T03:09:04.244Z,995.32
2023-04-14T03:10:04.208Z,995.33
2023-04-14T03:11:04.197Z,995.38
2023-04-14T03:12:04.191Z,995.35
2023-04-14T03:13:04.361Z,995.40
2023-04-14T03:14:04.149Z,995.36
2023-04-14T03:15:04.186Z,995.38
2023-04-14T03:16:04.217Z,995.39
2023-04-14T03:17:04.141Z,995.36
2023-04-14T03:18:04.257Z,995.35
2023-04-14T03:19:04.086Z,995.32
2023-04-14T03:20:04.085Z,995.34
2023-04-14T03:21:04.058Z,995.31
2023-04-14T03:22:04.033Z,995.34
2023-04-14T03:23:04.025Z,995.30
2023-04-14T03:24:04.010Z,995.32
2023-04-14T03:25:04.023Z,995.32
2023-04-14T03:26:03.992Z,995.29
2023-04-14T03:27:03.989Z,995.29
2023-04-14T03:28:03.963Z,995.27
2023-04-14T03:29:04.016Z,995.26
2023-04-14T03:30:03.994Z,995.27
2023-04-14T03:31:03.989Z,995.26
2023-04-14T03:32:03.912Z,995.25
2023-04-14T03:33:03.993Z,995.24
2023-04-14T03:34:04.040Z,995.23
2023-04-14T03:35:03.920Z,995.21
2023-04-14T03:36:03.919Z,995.21
2023-04-14T03:37:03.878Z,995.22
2023-04-14T03:38:03.850Z,995.23
2023-04-14T03:39:03.850Z,995.23
2023-04-14T03:40:03.823Z,995.26
2023-04-14T03:41:03.794Z,995.22
2023-04-14T03:42:03.813Z,995.25
2023-04-14T03:43:03.764Z,995.22
2023-04-14T03:44:03.761Z,995.22
2023-04-14T03:45:03.764Z,995.20
2023-04-14T03:46:03.831Z,995.23
2023-04-14T03:47:03.904Z,995.19
2023-04-14T03:48:03.765Z,995.16
2023-04-14T03:49:03.682Z,995.17
2023-04-14T03:50:03.685Z,995.19
2023-04-14T03:51:03.677Z,995.15
2023-04-14T03:52:03.638Z,995.16
2023-04-14T03:53:03.630Z,995.10
2023-04-14T03:54:03.625Z,995.13
2023-04-14T03:55:03.641Z,995.11
2023-04-14T03:56:03.590Z,995.12
2023-04-14T03:57:03.569Z,995.12
2023-04-14T03:58:03.559Z,995.14
2023-04-14T03:59:03.553Z,995.15
2023-04-14T04:00:03.583Z,995.16
2023-04-14T04:01:03.534Z,995.16
2023-04-14T04:02:03.589Z,995.15
2023-04-14T04:03:03.701Z,995.16
2023-04-14T04:04:03.557Z,995.17
2023-04-14T04:05:03.526Z,995.12
2023-04-14T04:06:03.453Z,995.16
2023-04-14T04:07:03.477Z,995.20
2023-04-14T04:08:03.456Z,995.18
2023-04-14T04:09:03.542Z,995.17
2023-04-14T04:10:03.429Z,995.18
2023-04-14T04:11:03.397Z,995.19
2023-04-14T04:12:03.405Z,995.21
2023-04-14T04:13:03.366Z,995.21
2023-04-14T04:14:03.363Z,995.23
2023-04-14T04:15:03.372Z,995.24
2023-04-14T04:16:03.441Z,995.23
2023-04-14T04:17:03.411Z,995.25
2023-04-14T04:18:03.361Z,995.24
2023-04-14T04:19:03.320Z,995.28
2023-04-14T04:20:03.372Z,995.24
2023-04-14T04:21:03.263Z,995.27
2023-04-14T04:22:03.243Z,995.26
2023-04-14T04:23:03.237Z,995.29
2023-04-14T04:24:03.226Z,995.24
2023-04-14T04:25:03.244Z,995.26
2023-04-14T04:26:03.200Z,995.28
2023-04-14T04:27:03.183Z,995.28
2023-04-14T04:28:03.162Z,995.30
2023-04-14T04:29:03.375Z,995.31
2023-04-14T04:30:03.145Z,995.29
2023-04-14T04:31:03.130Z,995.32
2023-04-14T04:32:03.161Z,995.37
2023-04-14T04:33:03.169Z,995.33
2023-04-14T04:34:03.124Z,995.35
2023-04-14T04:35:03.070Z,995.36
2023-04-14T04:36:03.082Z,995.39
2023-04-14T04:37:03.054Z,995.37
2023-04-14T04:38:03.028Z,995.38
2023-04-14T04:39:03.264Z,995.44
2023-04-14T04:40:10.229Z,995.38
2023-04-14T04:41:03.010Z,995.41
2023-04-14T04:42:03.026Z,995.43
2023-04-14T04:43:02.980Z,995.43
2023-04-14T04:44:02.951Z,995.44
2023-04-14T04:45:02.980Z,995.46
2023-04-14T04:46:02.964Z,995.46
2023-04-14T04:47:02.923Z,995.48
2023-04-14T04:48:02.996Z,995.44
2023-04-14T04:49:03.323Z,995.43
2023-04-14T04:50:02.882Z,995.39
2023-04-14T04:51:02.872Z,995.41
2023-04-14T04:52:02.842Z,995.46
2023-04-14T04:53:05.654Z,995.42
2023-04-14T04:54:02.920Z,995.42
2023-04-14T04:55:02.866Z,995.43
2023-04-14T04:56:02.813Z,995.47
2023-04-14T04:57:02.783Z,995.45
2023-04-14T04:58:02.765Z,995.49
2023-04-14T04:59:02.943Z,995.47
2023-04-14T05:00:02.766Z,995.49
2023-04-14T05:01:02.768Z,995.51
2023-04-14T05:02:02.807Z,995.53
2023-04-14T05:03:02.848Z,995.52
2023-04-14T05:04:02.698Z,995.49
2023-04-14T05:05:03.928Z,995.49
2023-04-14T05:06:02.662Z,995.48
2023-04-14T05:07:02.642Z,995.47
2023-04-14T05:08:02.637Z,995.48
2023-04-14T05:09:03.003Z,995.45
2023-04-14T05:10:02.656Z,995.45
2023-04-14T05:11:02.580Z,995.48
2023-04-14T05:12:02.573Z,995.51
2023-04-14T05:13:02.710Z,995.51
2023-04-14T05:14:02.556Z,995.53
2023-04-14T05:15:02.556Z,995.51
2023-04-14T05:16:02.724Z,995.55
2023-04-14T05:17:02.701Z,995.56
2023-04-14T05:18:02.778Z,995.55
2023-04-14T05:19:02.891Z,995.58
2023-04-14T05:20:02.482Z,995.58
2023-04-14T05:21:02.491Z,995.56
2023-04-14T05:22:02.453Z,995.57
2023-04-14T05:23:02.438Z,995.57
2023-04-14T05:24:02.428Z,995.57
2023-04-14T05:25:02.436Z,995.62
2023-04-14T05:26:22.283Z,995.67
2023-04-14T05:27:13.848Z,995.62
2023-04-14T05:28:03.374Z,995.66
2023-04-14T05:29:02.561Z,995.67
2023-04-14T05:30:02.404Z,995.73
2023-04-14T05:31:02.370Z,995.73
2023-04-14T05:32:02.348Z,995.73
2023-04-14T05:33:02.345Z,995.72
2023-04-14T05:34:02.728Z,995.72
2023-04-14T05:35:02.321Z,995.74
2023-04-14T05:36:02.452Z,995.72
2023-04-14T05:37:02.262Z,995.73
2023-04-14T05:38:02.238Z,995.72
2023-04-14T05:39:02.253Z,995.72
2023-04-14T05:40:02.230Z,995.75
2023-04-14T05:41:02.261Z,995.78
2023-04-14T05:42:02.190Z,995.79
2023-04-14T05:43:02.252Z,995.80
2023-04-14T05:44:02.350Z,995.80
2023-04-14T05:45:02.184Z,995.80
2023-04-14T05:46:02.134Z,995.78
2023-04-14T05:47:02.270Z,995.84
2023-04-14T05:48:02.211Z,995.83
2023-04-14T05:49:02.254Z,995.80
2023-04-14T05:50:02.114Z,995.82
2023-04-14T05:51:02.114Z,995.83
2023-04-14T05:52:02.071Z,995.84
2023-04-14T05:53:02.047Z,995.79
2023-04-14T05:54:02.437Z,995.82
2023-04-14T05:55:02.047Z,995.84
2023-04-14T05:56:01.996Z,995.84
2023-04-14T05:57:01.991Z,995.82
2023-04-14T05:58:02.042Z,995.81
2023-04-14T05:59:01.962Z,995.80
2023-04-14T06:00:01.971Z,995.78
2023-04-14T06:01:01.940Z,995.78
2023-04-14T06:02:02.011Z,995.83
2023-04-14T06:03:02.127Z,995.82
2023-04-14T06:04:02.522Z,995.85
2023-04-14T06:05:02.011Z,995.88
2023-04-14T06:06:01.874Z,995.87
2023-04-14T06:07:01.862Z,995.86
2023-04-14T06:08:01.843Z,995.85
2023-04-14T06:09:02.149Z,995.83
2023-04-14T06:10:01.834Z,995.86
2023-04-14T06:11:01.836Z,995.86
2023-04-14T06:12:01.817Z,995.86
2023-04-14T06:13:01.772Z,995.85
2023-04-14T06:14:02.166Z,995.84
2023-04-14T06:15:01.783Z,995.85
2023-04-14T06:16:01.869Z,995.86
2023-04-14T06:17:01.733Z,995.85
2023-04-14T06:18:01.847Z,995.84
2023-04-14T06:19:02.012Z,995.81
2023-04-14T06:20:01.733Z,995.81
2023-04-14T06:21:01.671Z,995.80
2023-04-14T06:22:01.656Z,995.79
2023-04-14T06:23:01.646Z,995.73
2023-04-14T06:24:01.671Z,995.72
2023-04-14T06:25:01.657Z,995.73
2023-04-14T06:26:01.613Z,995.73
2023-04-14T06:27:01.631Z,995.72
2023-04-14T06:28:01.572Z,995.71
2023-04-14T06:29:01.890Z,995.64
2023-04-14T06:30:01.603Z,995.67
2023-04-14T06:31:01.535Z,995.67
2023-04-14T06:32:01.617Z,995.70
2023-04-14T06:33:01.574Z,995.67
2023-04-14T06:34:01.506Z,995.61
2023-04-14T06:35:01.503Z,995.66
2023-04-14T06:36:01.475Z,995.59
2023-04-14T06:37:01.458Z,995.67
2023-04-14T06:38:01.450Z,995.64
2023-04-14T06:39:01.777Z,995.60
2023-04-14T06:40:01.451Z,995.59
2023-04-14T06:41:01.405Z,995.58
2023-04-14T06:42:01.553Z,995.55
2023-04-14T06:43:01.434Z,995.56
2023-04-14T06:44:01.365Z,995.55
2023-04-14T06:45:01.373Z,995.54
2023-04-14T06:46:01.389Z,995.51
2023-04-14T06:47:01.352Z,995.52
2023-04-14T06:48:01.391Z,995.49
2023-04-14T06:49:01.435Z,995.54
2023-04-14T06:50:01.326Z,995.53
2023-04-14T06:51:01.290Z,995.48
2023-04-14T06:52:01.274Z,995.50
2023-04-14T06:53:01.283Z,995.48
2023-04-14T06:54:01.514Z,995.49
2023-04-14T06:55:01.316Z,995.46
2023-04-14T06:56:01.214Z,995.46
2023-04-14T06:57:01.388Z,995.46
2023-04-14T06:58:01.196Z,995.45
2023-04-14T06:59:01.177Z,995.51
2023-04-14T07:00:01.189Z,995.53
2023-04-14T07:01:01.161Z,995.54
2023-04-14T07:02:01.247Z,995.58
2023-04-14T07:03:01.231Z,995.60
2023-04-14T07:04:01.289Z,995.60
2023-04-14T07:05:01.148Z,995.57
2023-04-14T07:06:01.102Z,995.58
2023-04-14T07:07:01.063Z,995.54
2023-04-14T07:08:01.073Z,995.54
2023-04-14T07:09:01.055Z,995.56
2023-04-14T07:10:01.137Z,995.56
2023-04-14T07:11:01.019Z,995.50
2023-04-14T07:12:01.003Z,995.53
2023-04-14T07:13:01.001Z,995.53
2023-04-14T07:14:01.164Z,995.54
2023-04-14T07:15:01.038Z,995.58
2023-04-14T07:16:01.000Z,995.52
2023-04-14T07:17:00.945Z,995.57
2023-04-14T07:18:00.972Z,995.60
2023-04-14T07:19:00.928Z,995.56
2023-04-14T07:20:00.940Z,995.57
2023-04-14T07:21:00.878Z,995.54
2023-04-14T07:22:00.861Z,995.57
2023-04-14T07:23:00.839Z,995.57
2023-04-14T07:24:01.039Z,995.54
2023-04-14T07:25:00.854Z,995.58
2023-04-14T07:26:00.819Z,995.58
2023-04-14T07:27:00.792Z,995.58
2023-04-14T07:28:03.548Z,995.58
2023-04-14T07:29:00.759Z,995.58
2023-04-14T07:30:00.777Z,995.60
2023-04-14T07:31:00.789Z,995.59
2023-04-14T07:32:00.733Z,995.65
2023-04-14T07:33:00.783Z,995.62
2023-04-14T07:34:00.877Z,995.60
2023-04-14T07:35:00.741Z,995.58
2023-04-14T07:36:03.577Z,995.56
2023-04-14T07:37:00.647Z,995.53
2023-04-14T07:38:00.669Z,995.54
2023-04-14T07:39:00.632Z,995.55
2023-04-14T07:40:00.638Z,995.51
2023-04-14T07:41:00.608Z,995.50
2023-04-14T07:42:00.592Z,995.48
2023-04-14T07:43:00.579Z,995.46
2023-04-14T07:44:00.811Z,995.51
2023-04-14T07:45:00.602Z,995.49
2023-04-14T07:46:00.570Z,995.54
2023-04-14T07:47:00.537Z,995.50
2023-04-14T07:48:00.651Z,995.51
2023-04-14T07:49:00.502Z,995.51
2023-04-14T07:50:00.519Z,995.46
2023-04-14T07:51:00.475Z,995.48
2023-04-14T07:52:00.462Z,995.45
2023-04-14T07:53:00.452Z,995.46
2023-04-14T07:54:00.669Z,995.47
2023-04-14T07:55:00.438Z,995.47
2023-04-14T07:56:00.493Z,995.45
2023-04-14T07:57:00.496Z,995.48
2023-04-14T07:58:00.387Z,995.48
2023-04-14T07:59:00.685Z,995.51
2023-04-14T08:00:00.415Z,995.51
2023-04-14T08:01:00.349Z,995.52
2023-04-14T08:02:00.430Z,995.51
2023-04-14T08:03:00.518Z,995.52
2023-04-14T08:04:00.550Z,995.55
2023-04-14T08:05:00.357Z,995.59
2023-04-14T08:06:00.287Z,995.58
2023-04-14T08:07:00.264Z,995.57
2023-04-14T08:08:00.257Z,995.58
2023-04-14T08:09:00.636Z,995.58
2023-04-14T08:10:00.231Z,995.55
2023-04-14T08:11:00.244Z,995.58
2023-04-14T08:12:00.202Z,995.58
2023-04-14T08:13:02.317Z,995.58
2023-04-14T08:14:00.176Z,995.53
2023-04-14T08:15:00.172Z,995.55
2023-04-14T08:16:00.205Z,995.58
2023-04-14T08:17:00.139Z,995.55
2023-04-14T08:18:00.207Z,995.52
2023-04-14T08:19:00.452Z,995.56
2023-04-14T08:20:00.098Z,995.54
2023-04-14T08:21:00.103Z,995.54
2023-04-14T08:22:00.076Z,995.55
2023-04-14T08:23:00.049Z,995.54
2023-04-14T08:24:00.070Z,995.49
2023-04-14T08:25:00.098Z,995.53
2023-04-14T08:26:00.034Z,995.49
2023-04-14T08:26:59.994Z,995.47
2023-04-14T08:28:00.002Z,995.48
2023-04-14T08:29:00.316Z,995.45
2023-04-14T08:30:00.010Z,995.43
2023-04-14T08:30:59.968Z,995.44
2023-04-14T08:31:59.963Z,995.48
2023-04-14T08:32:59.936Z,995.44
2023-04-14T08:33:59.905Z,995.47
2023-04-14T08:35:37.566Z,995.44
2023-04-14T08:36:01.056Z,995.45
2023-04-14T08:36:59.867Z,995.44
2023-04-14T08:37:59.868Z,995.35
2023-04-14T08:39:00.169Z,995.37
2023-04-14T08:39:59.857Z,995.35
2023-04-14T08:40:59.830Z,995.32
2023-04-14T08:41:59.848Z,995.31
2023-04-14T08:42:59.784Z,995.34
2023-04-14T08:43:59.781Z,995.33
2023-04-14T08:44:59.769Z,995.28
2023-04-14T08:45:59.786Z,995.25
2023-04-14T08:46:59.734Z,995.23
2023-04-14T08:47:59.826Z,995.21
2023-04-14T08:48:59.882Z,995.15
2023-04-14T08:49:59.704Z,995.14
2023-04-14T08:50:59.752Z,995.10
2023-04-14T08:51:59.676Z,995.07
2023-04-14T08:52:59.656Z,995.08
2023-04-14T08:53:59.999Z,995.09
2023-04-14T08:54:59.634Z,995.07
2023-04-14T08:55:59.649Z,995.03
2023-04-14T08:56:59.611Z,995.06
2023-04-14T08:57:59.602Z,995.04
2023-04-14T08:58:59.583Z,995.03
2023-04-14T08:59:59.579Z,995.00
2023-04-14T09:00:59.624Z,995.00
2023-04-14T09:01:59.742Z,994.97
2023-04-14T09:02:59.654Z,994.99
2023-04-14T09:04:00.031Z,995.02
2023-04-14T09:04:59.716Z,994.98
2023-04-14T09:05:59.539Z,994.99
2023-04-14T09:06:59.489Z,994.99
2023-04-14T09:07:59.479Z,994.99
2023-04-14T09:08:59.454Z,994.96
2023-04-14T09:09:59.456Z,994.95
2023-04-14T09:10:59.419Z,994.94
2023-04-14T09:11:59.411Z,994.96
2023-04-14T09:12:59.425Z,994.96
2023-04-14T09:13:59.715Z,994.97
2023-04-14T09:14:59.397Z,994.94
2023-04-14T09:15:59.358Z,994.93
2023-04-14T09:16:59.410Z,994.96
2023-04-14T09:17:59.412Z,994.93
2023-04-14T09:19:06.909Z,994.98
2023-04-14T09:20:34.537Z,994.97
2023-04-14T09:21:29.984Z,994.96
2023-04-14T09:22:00.269Z,994.91
2023-04-14T09:22:59.262Z,994.88
2023-04-14T09:23:59.472Z,994.81
2023-04-14T09:24:59.253Z,994.87
2023-04-14T09:25:59.242Z,994.84
2023-04-14T09:26:59.196Z,994.78
2023-04-14T09:27:59.197Z,994.81
2023-04-14T09:28:59.379Z,994.82
2023-04-14T09:29:59.190Z,994.80
2023-04-14T09:30:59.219Z,994.81
2023-04-14T09:31:59.142Z,994.83
2023-04-14T09:32:59.165Z,994.69
2023-04-14T09:33:59.180Z,994.73
2023-04-14T09:34:59.090Z,994.68
2023-04-14T09:35:59.103Z,994.67
2023-04-14T09:36:59.069Z,994.68
2023-04-14T09:37:59.065Z,994.67
2023-04-14T09:38:59.036Z,994.68
2023-04-14T09:39:59.049Z,994.65
2023-04-14T09:40:59.036Z,994.61
2023-04-14T09:41:59.032Z,994.66
2023-04-14T09:42:58.981Z,994.66
2023-04-14T09:43:59.218Z,994.69
2023-04-14T09:44:59.049Z,994.65
2023-04-14T09:45:59.000Z,994.66
2023-04-14T09:46:58.947Z,994.69
2023-04-14T09:47:58.935Z,994.72
2023-04-14T09:48:58.912Z,994.70
2023-04-14T09:49:58.889Z,994.67
2023-04-14T09:50:58.896Z,994.63
2023-04-14T09:51:58.867Z,994.62
2023-04-14T09:52:58.852Z,994.65
2023-04-14T09:53:58.859Z,994.63
2023-04-14T09:54:58.830Z,994.61
2023-04-14T09:55:58.829Z,994.64
2023-04-14T09:56:58.793Z,994.61
2023-04-14T09:57:58.797Z,994.61
2023-04-14T09:58:58.869Z,994.58
2023-04-14T09:59:58.742Z,994.55
2023-04-14T10:00:58.782Z,994.56
2023-04-14T10:01:58.868Z,994.51
2023-04-14T10:02:58.808Z,994.46
2023-04-14T10:03:58.702Z,994.46
2023-04-14T10:04:58.698Z,994.48
2023-04-14T10:05:58.700Z,994.40
2023-04-14T10:06:58.660Z,994.45
2023-04-14T10:07:58.649Z,994.43
2023-04-14T10:08:59.184Z,994.48
2023-04-14T10:09:58.622Z,994.43
2023-04-14T10:10:58.612Z,994.45
2023-04-14T10:11:58.586Z,994.42
2023-04-14T10:12:58.585Z,994.35
2023-04-14T10:13:58.580Z,994.37
2023-04-14T10:14:58.548Z,994.32
2023-04-14T10:15:58.582Z,994.30
2023-04-14T10:16:58.545Z,994.28
2023-04-14T10:17:58.537Z,994.30
2023-04-14T10:18:58.721Z,994.26
2023-04-14T10:19:58.503Z,994.26
2023-04-14T10:20:58.498Z,994.23
2023-04-14T10:21:58.456Z,994.18
2023-04-14T10:22:58.457Z,994.19
2023-04-14T10:23:58.576Z,994.16
2023-04-14T10:24:58.424Z,994.15
2023-04-14T10:25:58.426Z,994.11
2023-04-14T10:26:58.398Z,994.09
2023-04-14T10:27:58.378Z,994.08
2023-04-14T10:28:58.564Z,994.03
2023-04-14T10:29:58.349Z,994.05
2023-04-14T10:30:58.360Z,993.99
2023-04-14T10:31:58.483Z,993.98
2023-04-14T10:32:58.388Z,993.96
2023-04-14T10:33:58.319Z,993.98
2023-04-14T10:34:58.292Z,993.97
2023-04-14T10:35:58.293Z,993.96
2023-04-14T10:36:58.267Z,993.98
2023-04-14T10:37:58.249Z,993.99
2023-04-14T10:38:58.344Z,993.97
2023-04-14T10:39:58.230Z,993.96
2023-04-14T10:41:05.360Z,993.96
2023-04-14T10:41:58.194Z,993.97
2023-04-14T10:42:58.187Z,993.96
2023-04-14T10:43:58.184Z,993.98
2023-04-14T10:44:58.162Z,993.92
2023-04-14T10:45:58.192Z,993.93
2023-04-14T10:46:58.179Z,993.87
2023-04-14T10:47:58.198Z,993.88
2023-04-14T10:48:58.112Z,993.84
2023-04-14T10:49:58.096Z,993.81
2023-04-14T10:50:58.073Z,993.85
2023-04-14T10:51:58.082Z,993.88
2023-04-14T10:52:58.077Z,993.88
2023-04-14T10:53:58.036Z,993.85
2023-04-14T10:54:58.036Z,993.80
2023-04-14T10:55:58.018Z,993.81
2023-04-14T10:56:58.021Z,993.77
2023-04-14T10:57:57.981Z,993.76
2023-04-14T10:58:58.184Z,993.72
2023-04-14T10:59:57.953Z,993.73
2023-04-14T11:00:57.968Z,993.73
2023-04-14T11:01:57.967Z,993.74
2023-04-14T11:02:58.087Z,993.72
2023-04-14T11:03:58.058Z,993.73
2023-04-14T11:04:57.899Z,993.74
2023-04-14T11:05:57.877Z,993.69
2023-04-14T11:06:57.885Z,993.70
2023-04-14T11:07:59.905Z,993.67
2023-04-14T11:08:57.835Z,993.65
2023-04-14T11:09:57.823Z,993.65
2023-04-14T11:10:57.817Z,993.62
2023-04-14T11:11:57.833Z,993.68
2023-04-14T11:12:57.797Z,993.66
2023-04-14T11:13:57.801Z,993.63
2023-04-14T11:14:57.775Z,993.64
2023-04-14T11:15:57.747Z,993.64
2023-04-14T11:17:03.707Z,993.58
2023-04-14T11:17:58.743Z,993.56
2023-04-14T11:18:57.720Z,993.56
2023-04-14T11:19:57.685Z,993.55
2023-04-14T11:20:57.676Z,993.56
2023-04-14T11:21:57.722Z,993.54
2023-04-14T11:22:57.669Z,993.51
2023-04-14T11:23:57.642Z,993.53
2023-04-14T11:24:57.625Z,993.48
2023-04-14T11:25:57.633Z,993.48
2023-04-14T11:26:57.615Z,993.43
2023-04-14T11:27:57.585Z,993.43
2023-04-14T11:28:57.564Z,993.43
2023-04-14T11:29:57.554Z,993.42
2023-04-14T11:30:57.531Z,993.36
2023-04-14T11:31:57.561Z,993.36
2023-04-14T11:32:57.631Z,993.36
2023-04-14T11:33:57.651Z,993.34
2023-04-14T11:34:57.511Z,993.35
2023-04-14T11:35:57.481Z,993.31
2023-04-14T11:36:57.596Z,993.33
2023-04-14T11:37:57.442Z,993.28
2023-04-14T11:38:57.436Z,993.25
2023-04-14T11:39:57.412Z,993.25
2023-04-14T11:40:57.420Z,993.26
2023-04-14T11:41:57.422Z,993.21
2023-04-14T11:42:57.385Z,993.19
2023-04-14T11:43:57.369Z,993.16
2023-04-14T11:44:57.352Z,993.17
2023-04-14T11:45:57.379Z,993.15
2023-04-14T11:46:57.343Z,993.13
2023-04-14T11:47:57.376Z,993.10
2023-04-14T11:48:57.300Z,993.08
2023-04-14T11:49:57.292Z,993.09
2023-04-14T11:50:57.273Z,993.09
2023-04-14T11:51:57.259Z,993.07
2023-04-14T11:52:57.296Z,993.09
2023-04-14T11:53:57.221Z,993.07
2023-04-14T11:54:57.243Z,993.04
2023-04-14T11:55:57.203Z,993.07
2023-04-14T11:56:57.201Z,993.03
2023-04-14T11:57:57.289Z,993.04
2023-04-14T11:58:57.168Z,993.03
2023-04-14T11:59:57.145Z,993.00
2023-04-14T12:00:57.136Z,993.01
2023-04-14T12:01:57.160Z,993.01
2023-04-14T12:02:57.321Z,992.98
2023-04-14T12:03:57.258Z,992.98
2023-04-14T12:04:57.399Z,993.00
2023-04-14T12:05:57.076Z,992.98
2023-04-14T12:06:57.052Z,992.99
2023-04-14T12:07:57.070Z,992.97
2023-04-14T12:08:57.043Z,992.96
2023-04-14T12:09:57.020Z,992.93
2023-04-14T12:10:56.996Z,992.95
2023-04-14T12:11:56.992Z,992.96
2023-04-14T12:12:56.994Z,992.95
2023-04-14T12:13:57.000Z,992.97
2023-04-14T12:14:56.950Z,992.94
2023-04-14T12:15:56.954Z,992.93
2023-04-14T12:16:56.930Z,992.92
2023-04-14T12:17:57.118Z,992.93
2023-04-14T12:18:56.903Z,992.89
2023-04-14T12:19:56.878Z,992.83
2023-04-14T12:20:56.914Z,992.91
2023-04-14T12:21:56.879Z,992.87
2023-04-14T12:22:56.861Z,992.81
2023-04-14T12:23:56.822Z,992.80
2023-04-14T12:24:56.811Z,992.77
2023-04-14T12:25:56.792Z,992.84
2023-04-14T12:26:56.790Z,992.80
2023-04-14T12:27:57.379Z,992.82